sensor_id;sensor_type;location;lat;lon;timestamp;P1;durP1;ratioP1;P2;durP2;ratioP2
23078;SDS011;11707;50.830;4.364;2023-03-20T00:00:46;13.20;;;8.02;;
23078;SDS011;11707;50.830;4.364;2023-03-20T00:03:13;16.35;;;8.50;;
23078;SDS011;11707;50.830;4.364;2023-03-20T00:05:40;17.05;;;8.13;;
23078;SDS011;11707;50.830;4.364;2023-03-20T00:08:14;16.27;;;8.95;;
23078;SDS011;11707;50.830;4.364;2023-03-20T00:10:41;15.45;;;8.38;;
23078;SDS011;11707;50.830;4.364;2023-03-20T00:13:13;13.40;;;8.20;;
23078;SDS011;11707;50.830;4.364;2023-03-20T00:15:44;11.45;;;8.15;;
23078;SDS011;11707;50.830;4.364;2023-03-20T00:18:17;12.27;;;8.05;;
23078;SDS011;11707;50.830;4.364;2023-03-20T00:20:44;11.23;;;7.20;;
23078;SDS011;11707;50.830;4.364;2023-03-20T00:23:13;15.95;;;8.25;;
23078;SDS011;11707;50.830;4.364;2023-03-20T00:25:39;15.40;;;7.35;;
23078;SDS011;11707;50.830;4.364;2023-03-20T00:28:22;19.90;;;8.55;;
23078;SDS011;11707;50.830;4.364;2023-03-20T00:30:57;12.57;;;7.55;;
23078;SDS011;11707;50.830;4.364;2023-03-20T00:33:23;14.23;;;7.75;;
23078;SDS011;11707;50.830;4.364;2023-03-20T00:35:48;12.63;;;7.43;;
23078;SDS011;11707;50.830;4.364;2023-03-20T00:38:14;13.90;;;7.30;;
23078;SDS011;11707;50.830;4.364;2023-03-20T00:40:40;13.88;;;8.02;;
23078;SDS011;11707;50.830;4.364;2023-03-20T00:43:05;13.98;;;8.50;;
23078;SDS011;11707;50.830;4.364;2023-03-20T00:45:34;14.27;;;7.28;;
23078;SDS011;11707;50.830;4.364;2023-03-20T00:48:02;14.02;;;7.20;;
23078;SDS011;11707;50.830;4.364;2023-03-20T00:50:29;15.73;;;8.07;;
23078;SDS011;11707;50.830;4.364;2023-03-20T00:52:55;12.52;;;8.20;;
23078;SDS011;11707;50.830;4.364;2023-03-20T00:55:23;13.20;;;7.78;;
23078;SDS011;11707;50.830;4.364;2023-03-20T00:57:52;12.98;;;7.35;;
23078;SDS011;11707;50.830;4.364;2023-03-20T01:00:35;11.80;;;7.23;;
23078;SDS011;11707;50.830;4.364;2023-03-20T01:03:37;13.95;;;7.88;;
23078;SDS011;11707;50.830;4.364;2023-03-20T01:06:01;16.33;;;7.50;;
23078;SDS011;11707;50.830;4.364;2023-03-20T01:08:27;18.27;;;7.80;;
23078;SDS011;11707;50.830;4.364;2023-03-20T01:10:54;19.42;;;7.63;;
23078;SDS011;11707;50.830;4.364;2023-03-20T01:13:26;16.73;;;7.32;;
23078;SDS011;11707;50.830;4.364;2023-03-20T01:15:55;11.65;;;7.13;;
23078;SDS011;11707;50.830;4.364;2023-03-20T01:18:22;19.58;;;8.52;;
23078;SDS011;11707;50.830;4.364;2023-03-20T01:20:51;17.20;;;8.40;;
23078;SDS011;11707;50.830;4.364;2023-03-20T01:23:19;15.13;;;8.68;;
23078;SDS011;11707;50.830;4.364;2023-03-20T01:25:47;17.73;;;8.88;;
23078;SDS011;11707;50.830;4.364;2023-03-20T01:28:17;20.95;;;9.30;;
23078;SDS011;11707;50.830;4.364;2023-03-20T01:30:46;14.40;;;9.00;;
23078;SDS011;11707;50.830;4.364;2023-03-20T01:33:16;17.92;;;9.32;;
23078;SDS011;11707;50.830;4.364;2023-03-20T01:35:43;15.30;;;9.93;;
23078;SDS011;11707;50.830;4.364;2023-03-20T01:38:20;17.45;;;8.57;;
23078;SDS011;11707;50.830;4.364;2023-03-20T01:43:22;16.17;;;9.43;;
23078;SDS011;11707;50.830;4.364;2023-03-20T01:51:18;17.00;;;9.38;;
23078;SDS011;11707;50.830;4.364;2023-03-20T01:54:12;17.23;;;10.38;;
23078;SDS011;11707;50.830;4.364;2023-03-20T01:59:19;16.65;;;10.25;;
23078;SDS011;11707;50.830;4.364;2023-03-20T02:01:50;20.30;;;10.38;;
23078;SDS011;11707;50.830;4.364;2023-03-20T02:04:16;18.92;;;9.98;;
23078;SDS011;11707;50.830;4.364;2023-03-20T02:06:47;23.40;;;11.65;;
23078;SDS011;11707;50.830;4.364;2023-03-20T02:09:14;17.75;;;10.45;;
23078;SDS011;11707;50.830;4.364;2023-03-20T02:11:40;21.13;;;10.48;;
23078;SDS011;11707;50.830;4.364;2023-03-20T02:14:07;21.17;;;9.75;;
23078;SDS011;11707;50.830;4.364;2023-03-20T02:16:36;16.73;;;9.73;;
23078;SDS011;11707;50.830;4.364;2023-03-20T02:19:05;21.50;;;10.80;;
23078;SDS011;11707;50.830;4.364;2023-03-20T02:27:05;24.48;;;10.88;;
23078;SDS011;11707;50.830;4.364;2023-03-20T02:35:51;20.05;;;10.88;;
23078;SDS011;11707;50.830;4.364;2023-03-20T02:38:41;18.80;;;11.38;;
23078;SDS011;11707;50.830;4.364;2023-03-20T02:41:27;21.88;;;11.45;;
23078;SDS011;11707;50.830;4.364;2023-03-20T02:52:16;26.60;;;11.57;;
23078;SDS011;11707;50.830;4.364;2023-03-20T02:57:46;20.50;;;12.27;;
23078;SDS011;11707;50.830;4.364;2023-03-20T03:00:27;22.50;;;12.32;;
23078;SDS011;11707;50.830;4.364;2023-03-20T03:03:19;28.55;;;12.70;;
23078;SDS011;11707;50.830;4.364;2023-03-20T03:06:05;23.98;;;11.90;;
23078;SDS011;11707;50.830;4.364;2023-03-20T03:08:38;29.63;;;12.85;;
23078;SDS011;11707;50.830;4.364;2023-03-20T03:11:10;26.75;;;11.98;;
23078;SDS011;11707;50.830;4.364;2023-03-20T03:13:38;24.60;;;12.23;;
23078;SDS011;11707;50.830;4.364;2023-03-20T03:16:14;24.88;;;12.73;;
23078;SDS011;11707;50.830;4.364;2023-03-20T03:18:43;20.67;;;12.60;;
23078;SDS011;11707;50.830;4.364;2023-03-20T03:21:11;25.23;;;11.93;;
23078;SDS011;11707;50.830;4.364;2023-03-20T03:23:48;28.02;;;11.30;;
23078;SDS011;11707;50.830;4.364;2023-03-20T03:26:17;24.60;;;12.45;;
23078;SDS011;11707;50.830;4.364;2023-03-20T03:28:56;21.38;;;10.90;;
23078;SDS011;11707;50.830;4.364;2023-03-20T03:31:28;27.77;;;12.05;;
23078;SDS011;11707;50.830;4.364;2023-03-20T03:33:56;23.05;;;11.52;;
23078;SDS011;11707;50.830;4.364;2023-03-20T03:41:49;19.48;;;10.93;;
23078;SDS011;11707;50.830;4.364;2023-03-20T03:46:53;19.67;;;10.07;;
23078;SDS011;11707;50.830;4.364;2023-03-20T03:49:23;20.17;;;9.77;;
23078;SDS011;11707;50.830;4.364;2023-03-20T03:51:54;20.23;;;9.48;;
23078;SDS011;11707;50.830;4.364;2023-03-20T03:54:27;23.63;;;10.95;;
23078;SDS011;11707;50.830;4.364;2023-03-20T03:56:57;20.88;;;10.45;;
23078;SDS011;11707;50.830;4.364;2023-03-20T03:59:27;23.23;;;9.43;;
23078;SDS011;11707;50.830;4.364;2023-03-20T04:01:57;21.38;;;10.25;;
23078;SDS011;11707;50.830;4.364;2023-03-20T04:04:25;23.45;;;10.82;;
23078;SDS011;11707;50.830;4.364;2023-03-20T04:06:52;22.90;;;9.98;;
23078;SDS011;11707;50.830;4.364;2023-03-20T04:09:18;18.80;;;10.35;;
23078;SDS011;11707;50.830;4.364;2023-03-20T04:11:45;27.10;;;9.95;;
23078;SDS011;11707;50.830;4.364;2023-03-20T04:14:13;23.88;;;8.85;;
23078;SDS011;11707;50.830;4.364;2023-03-20T04:16:39;22.67;;;9.95;;
23078;SDS011;11707;50.830;4.364;2023-03-20T04:19:06;20.77;;;10.43;;
23078;SDS011;11707;50.830;4.364;2023-03-20T04:21:36;17.55;;;8.55;;
23078;SDS011;11707;50.830;4.364;2023-03-20T04:24:02;21.75;;;9.23;;
23078;SDS011;11707;50.830;4.364;2023-03-20T04:26:28;17.95;;;9.52;;
23078;SDS011;11707;50.830;4.364;2023-03-20T04:28:53;25.90;;;9.70;;
23078;SDS011;11707;50.830;4.364;2023-03-20T04:31:19;26.77;;;9.27;;
23078;SDS011;11707;50.830;4.364;2023-03-20T04:33:45;17.95;;;8.38;;
23078;SDS011;11707;50.830;4.364;2023-03-20T04:36:11;23.40;;;9.40;;
23078;SDS011;11707;50.830;4.364;2023-03-20T04:38:37;25.33;;;9.13;;
23078;SDS011;11707;50.830;4.364;2023-03-20T04:41:03;17.80;;;7.53;;
23078;SDS011;11707;50.830;4.364;2023-03-20T04:43:29;21.13;;;8.57;;
23078;SDS011;11707;50.830;4.364;2023-03-20T04:45:55;18.15;;;8.45;;
23078;SDS011;11707;50.830;4.364;2023-03-20T04:48:21;29.30;;;9.48;;
23078;SDS011;11707;50.830;4.364;2023-03-20T04:50:49;21.63;;;8.43;;
23078;SDS011;11707;50.830;4.364;2023-03-20T04:53:16;19.25;;;9.23;;
23078;SDS011;11707;50.830;4.364;2023-03-20T04:55:43;20.45;;;8.80;;
23078;SDS011;11707;50.830;4.364;2023-03-20T04:58:10;23.42;;;8.57;;
23078;SDS011;11707;50.830;4.364;2023-03-20T05:00:36;19.45;;;8.00;;
23078;SDS011;11707;50.830;4.364;2023-03-20T05:03:01;21.48;;;7.80;;
23078;SDS011;11707;50.830;4.364;2023-03-20T05:05:27;22.00;;;8.30;;
23078;SDS011;11707;50.830;4.364;2023-03-20T05:07:53;13.75;;;7.28;;
23078;SDS011;11707;50.830;4.364;2023-03-20T05:10:20;18.45;;;8.40;;
23078;SDS011;11707;50.830;4.364;2023-03-20T05:12:46;15.20;;;7.72;;
23078;SDS011;11707;50.830;4.364;2023-03-20T05:15:14;20.92;;;7.82;;
23078;SDS011;11707;50.830;4.364;2023-03-20T05:17:40;17.25;;;7.05;;
23078;SDS011;11707;50.830;4.364;2023-03-20T05:20:06;22.80;;;7.50;;
23078;SDS011;11707;50.830;4.364;2023-03-20T05:22:31;19.35;;;8.40;;
23078;SDS011;11707;50.830;4.364;2023-03-20T05:24:57;14.75;;;6.75;;
23078;SDS011;11707;50.830;4.364;2023-03-20T05:27:24;23.45;;;7.20;;
23078;SDS011;11707;50.830;4.364;2023-03-20T05:29:50;19.00;;;6.80;;
23078;SDS011;11707;50.830;4.364;2023-03-20T05:32:16;18.77;;;6.03;;
23078;SDS011;11707;50.830;4.364;2023-03-20T05:34:42;17.40;;;6.65;;
23078;SDS011;11707;50.830;4.364;2023-03-20T05:37:08;21.05;;;7.32;;
23078;SDS011;11707;50.830;4.364;2023-03-20T05:39:33;16.45;;;6.30;;
23078;SDS011;11707;50.830;4.364;2023-03-20T05:41:59;22.42;;;7.25;;
23078;SDS011;11707;50.830;4.364;2023-03-20T05:44:28;14.75;;;6.78;;
23078;SDS011;11707;50.830;4.364;2023-03-20T05:46:54;21.42;;;7.47;;
23078;SDS011;11707;50.830;4.364;2023-03-20T05:49:20;17.52;;;6.55;;
23078;SDS011;11707;50.830;4.364;2023-03-20T05:51:48;16.17;;;7.00;;
23078;SDS011;11707;50.830;4.364;2023-03-20T05:54:14;16.90;;;6.93;;
23078;SDS011;11707;50.830;4.364;2023-03-20T05:56:40;16.77;;;6.88;;
23078;SDS011;11707;50.830;4.364;2023-03-20T05:59:05;18.80;;;6.32;;
23078;SDS011;11707;50.830;4.364;2023-03-20T06:01:35;19.17;;;7.40;;
23078;SDS011;11707;50.830;4.364;2023-03-20T06:04:00;18.67;;;6.25;;
23078;SDS011;11707;50.830;4.364;2023-03-20T06:06:27;22.60;;;5.85;;
23078;SDS011;11707;50.830;4.364;2023-03-20T06:08:52;18.95;;;6.70;;
23078;SDS011;11707;50.830;4.364;2023-03-20T06:11:21;22.85;;;6.93;;
23078;SDS011;11707;50.830;4.364;2023-03-20T06:13:46;27.75;;;6.68;;
23078;SDS011;11707;50.830;4.364;2023-03-20T06:16:13;16.30;;;6.43;;
23078;SDS011;11707;50.830;4.364;2023-03-20T06:18:41;29.00;;;6.70;;
23078;SDS011;11707;50.830;4.364;2023-03-20T06:21:09;20.25;;;5.38;;
23078;SDS011;11707;50.830;4.364;2023-03-20T06:23:37;25.23;;;7.25;;
23078;SDS011;11707;50.830;4.364;2023-03-20T06:26:03;17.80;;;5.03;;
23078;SDS011;11707;50.830;4.364;2023-03-20T06:28:29;18.70;;;5.85;;
23078;SDS011;11707;50.830;4.364;2023-03-20T06:30:57;15.15;;;6.00;;
23078;SDS011;11707;50.830;4.364;2023-03-20T06:33:30;16.05;;;5.38;;
23078;SDS011;11707;50.830;4.364;2023-03-20T06:35:55;21.38;;;6.05;;
23078;SDS011;11707;50.830;4.364;2023-03-20T06:38:23;17.20;;;5.70;;
23078;SDS011;11707;50.830;4.364;2023-03-20T06:40:52;14.85;;;4.10;;
23078;SDS011;11707;50.830;4.364;2023-03-20T06:43:18;18.48;;;5.18;;
23078;SDS011;11707;50.830;4.364;2023-03-20T06:45:43;19.48;;;5.10;;
23078;SDS011;11707;50.830;4.364;2023-03-20T06:48:09;21.65;;;5.93;;
23078;SDS011;11707;50.830;4.364;2023-03-20T06:50:37;16.98;;;5.97;;
23078;SDS011;11707;50.830;4.364;2023-03-20T06:53:06;19.48;;;5.30;;
23078;SDS011;11707;50.830;4.364;2023-03-20T06:55:34;15.98;;;4.63;;
23078;SDS011;11707;50.830;4.364;2023-03-20T06:58:03;18.70;;;5.10;;
23078;SDS011;11707;50.830;4.364;2023-03-20T07:00:28;13.20;;;4.78;;
23078;SDS011;11707;50.830;4.364;2023-03-20T07:02:57;26.17;;;6.25;;
23078;SDS011;11707;50.830;4.364;2023-03-20T07:05:22;20.88;;;5.65;;
23078;SDS011;11707;50.830;4.364;2023-03-20T07:07:48;19.65;;;4.97;;
23078;SDS011;11707;50.830;4.364;2023-03-20T07:10:14;17.38;;;5.20;;
23078;SDS011;11707;50.830;4.364;2023-03-20T07:12:43;18.85;;;5.57;;
23078;SDS011;11707;50.830;4.364;2023-03-20T07:15:09;12.90;;;5.22;;
23078;SDS011;11707;50.830;4.364;2023-03-20T07:17:37;16.10;;;4.25;;
23078;SDS011;11707;50.830;4.364;2023-03-20T07:20:03;21.00;;;5.15;;
23078;SDS011;11707;50.830;4.364;2023-03-20T07:22:29;17.15;;;4.57;;
23078;SDS011;11707;50.830;4.364;2023-03-20T07:24:58;14.38;;;5.10;;
23078;SDS011;11707;50.830;4.364;2023-03-20T07:27:23;17.92;;;5.43;;
23078;SDS011;11707;50.830;4.364;2023-03-20T07:29:50;15.68;;;4.25;;
23078;SDS011;11707;50.830;4.364;2023-03-20T07:32:16;16.70;;;5.43;;
23078;SDS011;11707;50.830;4.364;2023-03-20T07:34:42;14.02;;;4.53;;
23078;SDS011;11707;50.830;4.364;2023-03-20T07:37:08;14.55;;;4.63;;
23078;SDS011;11707;50.830;4.364;2023-03-20T07:39:34;22.60;;;5.40;;
23078;SDS011;11707;50.830;4.364;2023-03-20T07:42:00;14.18;;;4.38;;
23078;SDS011;11707;50.830;4.364;2023-03-20T07:44:26;23.98;;;4.82;;
23078;SDS011;11707;50.830;4.364;2023-03-20T07:46:52;20.17;;;4.50;;
23078;SDS011;11707;50.830;4.364;2023-03-20T07:49:17;23.65;;;4.22;;
23078;SDS011;11707;50.830;4.364;2023-03-20T07:51:44;20.02;;;4.10;;
23078;SDS011;11707;50.830;4.364;2023-03-20T07:54:11;17.65;;;3.83;;
23078;SDS011;11707;50.830;4.364;2023-03-20T07:56:37;18.50;;;4.75;;
23078;SDS011;11707;50.830;4.364;2023-03-20T07:59:05;14.50;;;3.67;;
23078;SDS011;11707;50.830;4.364;2023-03-20T08:01:33;18.98;;;4.53;;
23078;SDS011;11707;50.830;4.364;2023-03-20T08:03:59;24.40;;;6.53;;
23078;SDS011;11707;50.830;4.364;2023-03-20T08:06:24;12.48;;;4.18;;
23078;SDS011;11707;50.830;4.364;2023-03-20T08:08:51;12.50;;;4.35;;
23078;SDS011;11707;50.830;4.364;2023-03-20T08:11:19;21.05;;;4.45;;
23078;SDS011;11707;50.830;4.364;2023-03-20T08:13:47;18.92;;;4.25;;
23078;SDS011;11707;50.830;4.364;2023-03-20T08:16:12;19.27;;;4.78;;
23078;SDS011;11707;50.830;4.364;2023-03-20T08:18:41;16.80;;;3.63;;
23078;SDS011;11707;50.830;4.364;2023-03-20T08:21:11;17.85;;;4.07;;
23078;SDS011;11707;50.830;4.364;2023-03-20T08:23:39;9.65;;;3.65;;
23078;SDS011;11707;50.830;4.364;2023-03-20T08:26:05;15.20;;;4.13;;
23078;SDS011;11707;50.830;4.364;2023-03-20T08:28:31;10.18;;;3.40;;
23078;SDS011;11707;50.830;4.364;2023-03-20T08:31:00;17.95;;;4.22;;
23078;SDS011;11707;50.830;4.364;2023-03-20T08:33:28;21.80;;;4.35;;
23078;SDS011;11707;50.830;4.364;2023-03-20T08:35:58;10.00;;;4.57;;
23078;SDS011;11707;50.830;4.364;2023-03-20T08:38:26;15.65;;;4.80;;
23078;SDS011;11707;50.830;4.364;2023-03-20T08:40:52;15.25;;;5.10;;
23078;SDS011;11707;50.830;4.364;2023-03-20T08:43:18;12.48;;;4.32;;
23078;SDS011;11707;50.830;4.364;2023-03-20T08:45:47;16.15;;;5.78;;
23078;SDS011;11707;50.830;4.364;2023-03-20T08:48:13;18.25;;;4.80;;
23078;SDS011;11707;50.830;4.364;2023-03-20T08:50:39;16.70;;;5.85;;
23078;SDS011;11707;50.830;4.364;2023-03-20T08:53:05;11.38;;;5.68;;
23078;SDS011;11707;50.830;4.364;2023-03-20T08:55:31;15.38;;;4.55;;
23078;SDS011;11707;50.830;4.364;2023-03-20T08:57:57;14.70;;;4.93;;
23078;SDS011;11707;50.830;4.364;2023-03-20T09:00:25;11.90;;;5.20;;
23078;SDS011;11707;50.830;4.364;2023-03-20T09:02:51;13.98;;;5.30;;
23078;SDS011;11707;50.830;4.364;2023-03-20T09:05:17;20.08;;;5.82;;
23078;SDS011;11707;50.830;4.364;2023-03-20T09:07:46;16.58;;;5.10;;
23078;SDS011;11707;50.830;4.364;2023-03-20T09:10:12;16.73;;;5.65;;
23078;SDS011;11707;50.830;4.364;2023-03-20T09:12:46;20.15;;;6.55;;
23078;SDS011;11707;50.830;4.364;2023-03-20T09:15:12;12.70;;;4.65;;
23078;SDS011;11707;50.830;4.364;2023-03-20T09:17:38;14.85;;;5.45;;
23078;SDS011;11707;50.830;4.364;2023-03-20T09:20:04;18.38;;;5.72;;
23078;SDS011;11707;50.830;4.364;2023-03-20T09:22:33;11.20;;;4.70;;
23078;SDS011;11707;50.830;4.364;2023-03-20T09:25:01;20.50;;;5.38;;
23078;SDS011;11707;50.830;4.364;2023-03-20T09:27:27;19.73;;;5.05;;
23078;SDS011;11707;50.830;4.364;2023-03-20T09:29:53;14.27;;;4.18;;
23078;SDS011;11707;50.830;4.364;2023-03-20T09:32:18;11.45;;;4.65;;
23078;SDS011;11707;50.830;4.364;2023-03-20T09:34:44;12.35;;;4.35;;
23078;SDS011;11707;50.830;4.364;2023-03-20T09:37:10;17.00;;;4.68;;
23078;SDS011;11707;50.830;4.364;2023-03-20T09:39:36;15.43;;;5.38;;
23078;SDS011;11707;50.830;4.364;2023-03-20T09:42:07;19.65;;;5.03;;
23078;SDS011;11707;50.830;4.364;2023-03-20T09:55:38;14.93;;;4.40;;
23078;SDS011;11707;50.830;4.364;2023-03-20T09:58:09;15.10;;;4.80;;
23078;SDS011;11707;50.830;4.364;2023-03-20T10:00:51;15.90;;;5.43;;
23078;SDS011;11707;50.830;4.364;2023-03-20T10:03:31;14.65;;;4.72;;
23078;SDS011;11707;50.830;4.364;2023-03-20T10:06:02;18.77;;;5.40;;
23078;SDS011;11707;50.830;4.364;2023-03-20T10:08:33;17.35;;;4.68;;
23078;SDS011;11707;50.830;4.364;2023-03-20T10:22:35;19.35;;;4.78;;
23078;SDS011;11707;50.830;4.364;2023-03-20T10:24:48;13.57;;;4.60;;
23078;SDS011;11707;50.830;4.364;2023-03-20T10:27:31;20.38;;;5.68;;
23078;SDS011;11707;50.830;4.364;2023-03-20T10:32:59;18.90;;;3.72;;
23078;SDS011;11707;50.830;4.364;2023-03-20T10:38:43;13.37;;;4.37;;
23078;SDS011;11707;50.830;4.364;2023-03-20T10:41:31;11.35;;;4.47;;
23078;SDS011;11707;50.830;4.364;2023-03-20T10:46:27;6.97;;;3.42;;
23078;SDS011;11707;50.830;4.364;2023-03-20T10:48:57;15.50;;;4.80;;
23078;SDS011;11707;50.830;4.364;2023-03-20T10:52:00;12.13;;;3.80;;
23078;SDS011;11707;50.830;4.364;2023-03-20T10:57:00;12.57;;;3.55;;
23078;SDS011;11707;50.830;4.364;2023-03-20T10:59:44;12.95;;;3.47;;
23078;SDS011;11707;50.830;4.364;2023-03-20T11:02:15;11.45;;;3.20;;
23078;SDS011;11707;50.830;4.364;2023-03-20T11:04:43;12.93;;;2.72;;
23078;SDS011;11707;50.830;4.364;2023-03-20T11:09:43;10.88;;;2.85;;
23078;SDS011;11707;50.830;4.364;2023-03-20T11:12:16;8.05;;;2.63;;
23078;SDS011;11707;50.830;4.364;2023-03-20T11:14:46;15.43;;;3.30;;
23078;SDS011;11707;50.830;4.364;2023-03-20T11:17:12;12.82;;;3.40;;
23078;SDS011;11707;50.830;4.364;2023-03-20T11:19:39;14.85;;;3.38;;
23078;SDS011;11707;50.830;4.364;2023-03-20T11:22:07;20.42;;;3.55;;
23078;SDS011;11707;50.830;4.364;2023-03-20T11:24:46;9.82;;;3.00;;
23078;SDS011;11707;50.830;4.364;2023-03-20T11:27:19;5.55;;;1.95;;
23078;SDS011;11707;50.830;4.364;2023-03-20T11:29:52;12.75;;;4.00;;
23078;SDS011;11707;50.830;4.364;2023-03-20T11:32:26;12.23;;;2.88;;
23078;SDS011;11707;50.830;4.364;2023-03-20T11:35:13;11.35;;;3.47;;
23078;SDS011;11707;50.830;4.364;2023-03-20T11:37:53;15.82;;;3.67;;
23078;SDS011;11707;50.830;4.364;2023-03-20T11:40:32;20.58;;;3.83;;
23078;SDS011;11707;50.830;4.364;2023-03-20T11:45:31;10.02;;;3.08;;
23078;SDS011;11707;50.830;4.364;2023-03-20T11:48:05;10.13;;;3.22;;
23078;SDS011;11707;50.830;4.364;2023-03-20T11:50:42;11.15;;;3.63;;
23078;SDS011;11707;50.830;4.364;2023-03-20T11:58:32;11.98;;;3.60;;
23078;SDS011;11707;50.830;4.364;2023-03-20T12:01:03;13.82;;;3.80;;
23078;SDS011;11707;50.830;4.364;2023-03-20T12:03:42;9.13;;;3.40;;
23078;SDS011;11707;50.830;4.364;2023-03-20T12:06:17;12.88;;;3.70;;
23078;SDS011;11707;50.830;4.364;2023-03-20T12:08:47;19.38;;;4.30;;
23078;SDS011;11707;50.830;4.364;2023-03-20T12:11:27;15.77;;;3.33;;
23078;SDS011;11707;50.830;4.364;2023-03-20T12:14:03;12.63;;;4.07;;
23078;SDS011;11707;50.830;4.364;2023-03-20T12:16:42;17.98;;;4.55;;
23078;SDS011;11707;50.830;4.364;2023-03-20T12:19:12;15.23;;;3.80;;
23078;SDS011;11707;50.830;4.364;2023-03-20T12:21:45;15.63;;;3.47;;
23078;SDS011;11707;50.830;4.364;2023-03-20T12:29:49;16.00;;;4.40;;
23078;SDS011;11707;50.830;4.364;2023-03-20T12:35:15;11.30;;;3.78;;
23078;SDS011;11707;50.830;4.364;2023-03-20T12:37:48;19.35;;;4.75;;
23078;SDS011;11707;50.830;4.364;2023-03-20T12:40:15;12.52;;;4.18;;
23078;SDS011;11707;50.830;4.364;2023-03-20T12:45:29;12.27;;;4.15;;
23078;SDS011;11707;50.830;4.364;2023-03-20T12:50:35;12.98;;;3.67;;
23078;SDS011;11707;50.830;4.364;2023-03-20T13:01:20;12.63;;;4.35;;
23078;SDS011;11707;50.830;4.364;2023-03-20T13:04:02;16.15;;;4.63;;
23078;SDS011;11707;50.830;4.364;2023-03-20T13:20:06;18.23;;;5.45;;
23078;SDS011;11707;50.830;4.364;2023-03-20T13:25:34;18.80;;;5.07;;
23078;SDS011;11707;50.830;4.364;2023-03-20T13:33:55;15.48;;;4.68;;
23078;SDS011;11707;50.830;4.364;2023-03-20T13:39:31;12.80;;;5.32;;
23078;SDS011;11707;50.830;4.364;2023-03-20T13:42:00;14.57;;;5.07;;
23078;SDS011;11707;50.830;4.364;2023-03-20T13:44:29;13.90;;;5.38;;
23078;SDS011;11707;50.830;4.364;2023-03-20T13:49:34;12.55;;;5.80;;
23078;SDS011;11707;50.830;4.364;2023-03-20T13:52:09;13.88;;;4.97;;
23078;SDS011;11707;50.830;4.364;2023-03-20T14:01:08;15.18;;;4.35;;
23078;SDS011;11707;50.830;4.364;2023-03-20T14:03:49;19.95;;;6.18;;
23078;SDS011;11707;50.830;4.364;2023-03-20T14:08:57;19.70;;;6.18;;
23078;SDS011;11707;50.830;4.364;2023-03-20T14:11:29;16.60;;;6.35;;
23078;SDS011;11707;50.830;4.364;2023-03-20T14:14:07;19.38;;;5.55;;
23078;SDS011;11707;50.830;4.364;2023-03-20T14:16:42;22.98;;;5.53;;
23078;SDS011;11707;50.830;4.364;2023-03-20T14:19:18;15.25;;;6.07;;
23078;SDS011;11707;50.830;4.364;2023-03-20T14:21:46;13.98;;;6.38;;
23078;SDS011;11707;50.830;4.364;2023-03-20T14:24:14;17.52;;;6.38;;
23078;SDS011;11707;50.830;4.364;2023-03-20T14:26:45;18.65;;;5.80;;
23078;SDS011;11707;50.830;4.364;2023-03-20T14:40:18;19.35;;;6.28;;
23078;SDS011;11707;50.830;4.364;2023-03-20T14:42:52;17.67;;;5.88;;
23078;SDS011;11707;50.830;4.364;2023-03-20T14:45:40;17.08;;;6.05;;
23078;SDS011;11707;50.830;4.364;2023-03-20T14:48:14;16.48;;;6.25;;
23078;SDS011;11707;50.830;4.364;2023-03-20T14:53:33;14.15;;;5.13;;
23078;SDS011;11707;50.830;4.364;2023-03-20T14:56:16;22.55;;;6.25;;
23078;SDS011;11707;50.830;4.364;2023-03-20T14:59:01;15.73;;;5.85;;
23078;SDS011;11707;50.830;4.364;2023-03-20T15:06:33;12.75;;;5.40;;
23078;SDS011;11707;50.830;4.364;2023-03-20T15:09:04;18.40;;;5.80;;
23078;SDS011;11707;50.830;4.364;2023-03-20T15:11:32;18.35;;;5.93;;
23078;SDS011;11707;50.830;4.364;2023-03-20T15:14:03;24.83;;;6.00;;
23078;SDS011;11707;50.830;4.364;2023-03-20T15:16:32;17.48;;;5.82;;
23078;SDS011;11707;50.830;4.364;2023-03-20T15:18:59;18.95;;;5.65;;
23078;SDS011;11707;50.830;4.364;2023-03-20T15:24:05;15.48;;;5.32;;
23078;SDS011;11707;50.830;4.364;2023-03-20T15:26:32;18.63;;;6.43;;
23078;SDS011;11707;50.830;4.364;2023-03-20T15:31:30;21.73;;;6.18;;
23078;SDS011;11707;50.830;4.364;2023-03-20T15:34:01;17.42;;;6.55;;
23078;SDS011;11707;50.830;4.364;2023-03-20T15:36:31;16.55;;;5.63;;
23078;SDS011;11707;50.830;4.364;2023-03-20T15:41:49;20.48;;;6.63;;
23078;SDS011;11707;50.830;4.364;2023-03-20T15:44:19;23.90;;;6.30;;
23078;SDS011;11707;50.830;4.364;2023-03-20T15:46:52;18.60;;;5.80;;
23078;SDS011;11707;50.830;4.364;2023-03-20T15:49:21;15.82;;;6.22;;
23078;SDS011;11707;50.830;4.364;2023-03-20T15:51:49;18.95;;;6.70;;
23078;SDS011;11707;50.830;4.364;2023-03-20T15:54:16;14.68;;;6.28;;
23078;SDS011;11707;50.830;4.364;2023-03-20T15:56:46;21.23;;;7.63;;
23078;SDS011;11707;50.830;4.364;2023-03-20T15:59:16;17.13;;;5.63;;
23078;SDS011;11707;50.830;4.364;2023-03-20T16:01:48;18.20;;;6.55;;
23078;SDS011;11707;50.830;4.364;2023-03-20T16:04:18;18.10;;;6.07;;
23078;SDS011;11707;50.830;4.364;2023-03-20T16:06:51;18.63;;;6.10;;
23078;SDS011;11707;50.830;4.364;2023-03-20T16:09:24;16.08;;;5.68;;
23078;SDS011;11707;50.830;4.364;2023-03-20T16:11:55;17.73;;;6.18;;
23078;SDS011;11707;50.830;4.364;2023-03-20T16:14:30;15.88;;;5.63;;
23078;SDS011;11707;50.830;4.364;2023-03-20T16:16:58;25.75;;;6.93;;
23078;SDS011;11707;50.830;4.364;2023-03-20T16:19:27;18.80;;;5.60;;
23078;SDS011;11707;50.830;4.364;2023-03-20T16:21:59;9.10;;;4.63;;
23078;SDS011;11707;50.830;4.364;2023-03-20T16:24:49;18.05;;;5.72;;
23078;SDS011;11707;50.830;4.364;2023-03-20T16:27:33;17.38;;;6.40;;
23078;SDS011;11707;50.830;4.364;2023-03-20T16:30:08;13.75;;;5.32;;
23078;SDS011;11707;50.830;4.364;2023-03-20T16:32:43;22.00;;;5.50;;
23078;SDS011;11707;50.830;4.364;2023-03-20T16:35:19;25.92;;;5.78;;
23078;SDS011;11707;50.830;4.364;2023-03-20T16:37:53;17.85;;;6.20;;
23078;SDS011;11707;50.830;4.364;2023-03-20T16:43:31;16.67;;;6.03;;
23078;SDS011;11707;50.830;4.364;2023-03-20T16:45:55;20.10;;;5.38;;
23078;SDS011;11707;50.830;4.364;2023-03-20T16:48:33;14.35;;;5.53;;
23078;SDS011;11707;50.830;4.364;2023-03-20T16:51:19;27.23;;;6.57;;
23078;SDS011;11707;50.830;4.364;2023-03-20T16:53:53;24.45;;;5.57;;
23078;SDS011;11707;50.830;4.364;2023-03-20T16:56:24;13.20;;;5.32;;
23078;SDS011;11707;50.830;4.364;2023-03-20T16:58:58;17.33;;;5.47;;
23078;SDS011;11707;50.830;4.364;2023-03-20T17:01:30;20.85;;;5.10;;
23078;SDS011;11707;50.830;4.364;2023-03-20T17:03:57;18.30;;;6.15;;
23078;SDS011;11707;50.830;4.364;2023-03-20T17:06:45;15.98;;;5.15;;
23078;SDS011;11707;50.830;4.364;2023-03-20T17:11:48;15.02;;;5.10;;
23078;SDS011;11707;50.830;4.364;2023-03-20T17:14:26;14.65;;;5.80;;
23078;SDS011;11707;50.830;4.364;2023-03-20T17:16:52;16.50;;;5.13;;
23078;SDS011;11707;50.830;4.364;2023-03-20T17:19:21;18.83;;;5.78;;
23078;SDS011;11707;50.830;4.364;2023-03-20T17:21:48;25.95;;;6.43;;
23078;SDS011;11707;50.830;4.364;2023-03-20T17:24:14;16.48;;;5.40;;
23078;SDS011;11707;50.830;4.364;2023-03-20T17:26:41;13.15;;;5.18;;
23078;SDS011;11707;50.830;4.364;2023-03-20T17:29:11;15.73;;;5.55;;
23078;SDS011;11707;50.830;4.364;2023-03-20T17:31:38;14.00;;;5.35;;
23078;SDS011;11707;50.830;4.364;2023-03-20T17:34:03;13.38;;;5.50;;
23078;SDS011;11707;50.830;4.364;2023-03-20T17:36:30;25.23;;;7.03;;
23078;SDS011;11707;50.830;4.364;2023-03-20T17:38:57;12.82;;;5.68;;
23078;SDS011;11707;50.830;4.364;2023-03-20T17:41:24;14.73;;;6.00;;
23078;SDS011;11707;50.830;4.364;2023-03-20T17:43:50;12.23;;;4.80;;
23078;SDS011;11707;50.830;4.364;2023-03-20T17:46:19;15.88;;;6.75;;